Time;durP1;ratioP1;P1;durP2;ratioP2;P2;SDS_P1;SDS_P2;PMS_P1;PMS_P2;Temp;Humidity;BMP_temperature;BMP_pressure;BME280_temperature;BME280_humidity;BME280_pressure;Samples;Min_cycle;Max_cycle;Signal;HPM_P1;HPM_P2
2022/04/19 00:00:52;;;;;;;9.98;5.50;;;7.90;78.00;;;;;;5022577;28;20037;-67
2022/04/19 00:03:18;;;;;;;6.35;5.25;;;7.90;78.20;;;;;;5022571;28;20053;-68
2022/04/19 00:05:45;;;;;;;8.45;6.03;;;7.90;78.50;;;;;;5026671;28;20053;-67
2022/04/19 00:08:12;;;;;;;9.02;6.18;;;7.80;78.70;;;;;;5023188;28;20033;-67
2022/04/19 00:10:40;;;;;;;8.60;5.70;;;7.70;78.90;;;;;;5022797;28;20225;-67
2022/04/19 00:13:07;;;;;;;8.38;5.88;;;7.70;79.10;;;;;;5024884;28;20042;-68
2022/04/19 00:15:33;;;;;;;7.63;6.30;;;7.70;79.20;;;;;;5025042;28;20055;-69
2022/04/19 00:18:03;;;;;;;9.13;6.57;;;7.60;79.20;;;;;;5024868;28;20513;-68
2022/04/19 00:20:30;;;;;;;9.63;6.50;;;7.60;79.40;;;;;;5024976;28;20044;-69
2022/04/19 00:22:57;;;;;;;11.30;6.97;;;7.60;79.50;;;;;;5023840;28;20035;-68
2022/04/19 00:25:23;;;;;;;9.55;6.75;;;7.50;79.80;;;;;;5025647;28;20450;-68
2022/04/19 00:27:50;;;;;;;8.55;6.53;;;7.50;80.50;;;;;;5024569;28;20041;-68
2022/04/19 00:30:16;;;;;;;9.88;7.20;;;7.50;80.70;;;;;;5023763;28;20064;-68
2022/04/19 00:32:41;;;;;;;9.65;7.05;;;7.40;80.90;;;;;;5024087;28;20045;-69
2022/04/19 00:35:10;;;;;;;13.82;8.55;;;7.40;81.20;;;;;;5007543;28;20127;-68
2022/04/19 00:37:37;;;;;;;10.82;7.60;;;7.30;81.60;;;;;;5018602;28;20061;-68
2022/04/19 00:40:04;;;;;;;12.07;8.02;;;7.30;82.00;;;;;;5029271;28;20386;-68
2022/04/19 00:42:31;;;;;;;11.52;8.60;;;7.30;82.40;;;;;;5021759;28;20110;-68
2022/04/19 00:44:58;;;;;;;12.75;8.50;;;7.20;82.40;;;;;;5025748;28;20037;-67
2022/04/19 00:47:25;;;;;;;9.85;8.23;;;7.30;82.80;;;;;;5024263;28;20048;-67
2022/04/19 00:49:51;;;;;;;13.52;8.63;;;7.20;83.20;;;;;;5023629;28;20041;-68
2022/04/19 00:52:18;;;;;;;10.23;8.05;;;7.20;83.90;;;;;;5024371;28;20052;-68
2022/04/19 00:54:46;;;;;;;12.48;8.02;;;7.20;84.50;;;;;;5025961;28;20509;-68
2022/04/19 00:57:12;;;;;;;11.38;8.68;;;7.10;84.90;;;;;;5024299;28;20144;-68
2022/04/19 00:59:38;;;;;;;10.57;8.30;;;7.10;85.10;;;;;;5021118;28;20454;-68
2022/04/19 01:02:04;;;;;;;12.88;8.35;;;7.00;85.30;;;;;;5023076;28;20071;-67
2022/04/19 01:04:30;;;;;;;10.02;8.35;;;7.00;85.80;;;;;;5024819;28;20443;-67
2022/04/19 01:06:57;;;;;;;11.15;8.95;;;6.90;86.20;;;;;;5021446;28;20056;-67
2022/04/19 01:09:24;;;;;;;15.75;9.05;;;6.90;86.70;;;;;;5018418;28;20216;-68
2022/04/19 01:14:40;;;;;;;13.48;8.70;;;6.80;87.80;;;;;;5024268;28;20068;-67
2022/04/19 01:17:09;;;;;;;9.95;7.53;;;6.90;89.10;;;;;;5022349;28;20041;-67
2022/04/19 01:19:38;;;;;;;10.10;8.32;;;6.90;89.00;;;;;;5025652;28;20133;-67
2022/04/19 01:22:04;;;;;;;12.52;8.55;;;6.90;89.40;;;;;;5023130;28;20033;-67
2022/04/19 01:24:30;;;;;;;13.32;9.27;;;6.90;89.70;;;;;;5021886;28;20164;-68
2022/04/19 01:26:57;;;;;;;12.52;9.23;;;6.80;89.80;;;;;;5025018;28;20534;-67
2022/04/19 01:29:24;;;;;;;11.35;8.45;;;6.80;90.00;;;;;;5023264;28;20489;-69
2022/04/19 01:31:51;;;;;;;11.90;8.50;;;6.80;90.20;;;;;;5024163;28;20068;-68
2022/04/19 01:34:18;;;;;;;12.05;8.30;;;6.90;89.80;;;;;;5026712;28;20100;-68
2022/04/19 01:36:44;;;;;;;11.25;8.48;;;6.90;89.80;;;;;;5020634;28;20444;-68
2022/04/19 01:39:11;;;;;;;11.02;8.70;;;6.80;89.30;;;;;;5014476;28;20045;-67
2022/04/19 01:41:38;;;;;;;12.30;8.45;;;7.00;88.80;;;;;;5024844;28;20042;-67
2022/04/19 01:44:06;;;;;;;10.65;8.52;;;7.00;88.20;;;;;;5024191;28;20033;-68
2022/04/19 01:46:32;;;;;;;12.48;8.15;;;6.90;88.10;;;;;;5023192;28;20064;-67
2022/04/19 01:48:58;;;;;;;10.27;8.48;;;6.90;87.80;;;;;;5023971;28;20038;-68
2022/04/19 01:51:24;;;;;;;11.35;8.70;;;6.90;87.40;;;;;;5028309;28;20076;-68
2022/04/19 01:53:51;;;;;;;12.07;9.13;;;6.80;87.30;;;;;;5023014;28;20116;-68
2022/04/19 01:56:17;;;;;;;11.07;8.68;;;6.80;87.60;;;;;;5023291;28;20514;-68
2022/04/19 01:58:43;;;;;;;12.65;8.35;;;6.70;87.60;;;;;;5024715;28;20044;-68
2022/04/19 02:01:09;;;;;;;12.73;8.73;;;6.70;87.50;;;;;;5022341;28;20048;-67
2022/04/19 02:03:35;;;;;;;11.40;8.60;;;6.60;87.30;;;;;;5023670;28;20357;-68
2022/04/19 02:06:02;;;;;;;11.02;8.10;;;6.60;87.60;;;;;;5024421;28;20670;-67
2022/04/19 02:08:29;;;;;;;10.70;8.75;;;6.60;87.60;;;;;;5025179;28;20072;-68
2022/04/19 02:10:55;;;;;;;13.88;8.38;;;6.50;87.70;;;;;;5007477;28;20057;-68
2022/04/19 02:13:21;;;;;;;12.15;8.73;;;6.50;88.10;;;;;;5023834;28;20029;-66
2022/04/19 02:15:47;;;;;;;10.57;9.00;;;6.50;88.40;;;;;;5021915;28;20047;-67
2022/04/19 02:18:13;;;;;;;11.30;7.78;;;6.50;88.70;;;;;;5024209;28;20171;-68
2022/04/19 02:20:39;;;;;;;13.25;8.25;;;6.40;88.80;;;;;;5027355;28;20100;-68
2022/04/19 02:23:05;;;;;;;9.82;7.65;;;6.30;88.90;;;;;;5028097;28;20045;-68
2022/04/19 02:25:31;;;;;;;12.07;8.23;;;6.30;88.90;;;;;;5027759;28;20421;-67
2022/04/19 02:27:57;;;;;;;11.95;8.50;;;6.30;89.90;;;;;;5028699;28;20048;-68
2022/04/19 02:30:22;;;;;;;9.60;7.53;;;6.20;89.20;;;;;;5026570;28;20124;-68
2022/04/19 02:32:50;;;;;;;10.98;8.45;;;6.20;90.10;;;;;;5009764;28;20048;-68
2022/04/19 02:35:21;;;;;;;12.23;8.02;;;6.10;89.90;;;;;;5026385;28;20502;-67
2022/04/19 02:37:54;;;;;;;9.55;7.80;;;6.10;90.10;;;;;;5027218;28;20084;-67
2022/04/19 02:40:21;;;;;;;12.27;8.40;;;6.10;90.60;;;;;;5028058;28;20060;-68
2022/04/19 02:42:49;;;;;;;9.15;7.93;;;6.00;90.50;;;;;;5028259;28;20160;-67
2022/04/19 02:45:15;;;;;;;12.73;9.27;;;6.00;90.60;;;;;;5024839;28;20688;-67
2022/04/19 02:47:43;;;;;;;9.43;7.72;;;6.00;90.80;;;;;;5027586;28;20052;-67
2022/04/19 02:50:09;;;;;;;10.63;8.02;;;5.90;90.80;;;;;;5025176;28;20041;-67
2022/04/19 02:52:35;;;;;;;11.40;8.50;;;5.90;91.10;;;;;;5025825;28;20055;-67
2022/04/19 02:55:01;;;;;;;12.77;8.82;;;5.80;91.40;;;;;;5026373;28;20417;-68
2022/04/19 02:57:26;;;;;;;10.88;8.00;;;5.80;91.50;;;;;;5026946;28;20041;-68
2022/04/19 02:59:53;;;;;;;11.40;8.13;;;5.80;91.60;;;;;;5027895;28;20073;-68
2022/04/19 03:02:19;;;;;;;11.88;9.35;;;5.70;91.70;;;;;;5026865;28;20033;-68
2022/04/19 03:04:45;;;;;;;11.05;8.75;;;5.70;91.90;;;;;;5027604;28;20614;-67
2022/04/19 03:07:14;;;;;;;12.02;9.18;;;5.70;92.30;;;;;;5025559;28;20052;-68
2022/04/19 03:09:43;;;;;;;11.73;7.90;;;5.70;92.90;;;;;;5028664;28;20117;-68
2022/04/19 03:12:10;;;;;;;10.75;7.88;;;5.80;93.10;;;;;;5026014;28;20033;-67
2022/04/19 03:14:37;;;;;;;12.10;8.48;;;5.70;93.30;;;;;;5025822;28;20385;-67
2022/04/19 03:17:03;;;;;;;12.50;8.85;;;5.70;93.50;;;;;;5026924;28;20041;-67
2022/04/19 03:19:29;;;;;;;12.07;8.50;;;5.70;93.60;;;;;;5025917;28;20049;-67
2022/04/19 03:21:54;;;;;;;12.68;9.00;;;5.70;93.90;;;;;;5022343;28;20041;-67
2022/04/19 03:29:49;;;;;;;12.50;8.60;;;5.70;94.70;;;;;;5024409;28;20100;-68
2022/04/19 03:32:15;;;;;;;10.95;7.32;;;5.70;94.50;;;;;;5025854;28;20041;-68
2022/04/19 03:34:42;;;;;;;12.43;8.63;;;5.70;94.50;;;;;;5026424;28;20107;-68
2022/04/19 03:37:09;;;;;;;10.05;8.43;;;5.80;94.50;;;;;;5026188;28;20053;-68
2022/04/19 03:39:35;;;;;;;11.18;8.18;;;5.90;94.00;;;;;;5028239;28;20076;-67
2022/04/19 03:42:01;;;;;;;11.02;8.23;;;5.90;93.60;;;;;;5027720;28;20303;-68
2022/04/19 03:44:26;;;;;;;12.30;9.10;;;6.00;93.30;;;;;;5025839;28;20041;-68
2022/04/19 03:47:08;;;;;;;16.85;8.98;;;6.00;93.00;;;;;;5025051;28;20069;-67
2022/04/19 03:49:36;;;;;;;13.00;8.98;;;6.10;92.90;;;;;;5023862;28;20068;-67
2022/04/19 03:52:03;;;;;;;12.88;8.40;;;6.20;92.80;;;;;;5023461;28;20082;-68
2022/04/19 03:54:29;;;;;;;13.00;8.57;;;6.20;92.90;;;;;;5008999;28;20659;-72
2022/04/19 03:56:54;;;;;;;12.38;8.80;;;6.30;92.80;;;;;;5026849;28;20046;-67
2022/04/19 03:59:22;;;;;;;11.00;8.18;;;6.30;92.60;;;;;;5026501;28;20040;-68
2022/04/19 04:01:48;;;;;;;12.32;8.32;;;6.30;92.80;;;;;;5025822;28;20037;-68
2022/04/19 04:04:14;;;;;;;14.52;7.93;;;6.30;92.50;;;;;;5022203;28;20056;-68
2022/04/19 04:06:39;;;;;;;11.63;8.32;;;6.30;92.50;;;;;;5024235;28;20037;-68
2022/04/19 04:09:05;;;;;;;12.57;8.15;;;6.40;92.30;;;;;;5026463;28;20048;-68
2022/04/19 04:11:32;;;;;;;10.80;8.55;;;6.50;92.20;;;;;;5025529;28;20124;-68
2022/04/19 04:13:58;;;;;;;10.45;7.95;;;6.40;92.00;;;;;;5023871;28;20458;-68
2022/04/19 04:16:24;;;;;;;9.80;7.45;;;6.40;92.20;;;;;;5019776;28;20044;-67
2022/04/19 04:18:50;;;;;;;13.65;8.30;;;6.40;92.10;;;;;;5005300;28;20488;-68
2022/04/19 04:21:15;;;;;;;12.32;8.88;;;6.40;92.10;;;;;;5025210;28;20060;-67
2022/04/19 04:23:41;;;;;;;11.50;8.40;;;6.40;92.10;;;;;;5026375;28;20421;-67
2022/04/19 04:26:07;;;;;;;10.63;7.90;;;6.30;92.30;;;;;;5024138;28;20582;-67
2022/04/19 04:28:32;;;;;;;19.48;8.95;;;6.40;92.40;;;;;;5024031;28;20401;-68
2022/04/19 04:30:58;;;;;;;11.70;8.13;;;6.40;92.40;;;;;;5025378;28;20033;-68
2022/04/19 04:33:24;;;;;;;11.23;8.43;;;6.40;92.20;;;;;;5025826;28;20072;-68
2022/04/19 04:35:49;;;;;;;10.43;7.80;;;6.30;92.20;;;;;;5029342;28;20045;-67
2022/04/19 04:38:15;;;;;;;11.85;8.60;;;6.30;92.80;;;;;;5023391;28;20539;-68
2022/04/19 04:40:41;;;;;;;12.98;9.23;;;6.30;92.70;;;;;;5025676;28;20393;-67
2022/04/19 04:43:06;;;;;;;13.20;8.95;;;6.30;92.70;;;;;;5024618;28;20059;-68
2022/04/19 04:45:32;;;;;;;11.32;8.77;;;6.20;92.70;;;;;;5021859;28;20116;-68
2022/04/19 04:50:42;;;;;;;10.63;8.27;;;6.20;93.20;;;;;;5029686;28;20064;-68
2022/04/19 04:53:08;;;;;;;13.55;8.65;;;6.20;93.20;;;;;;5031225;28;20038;-68
2022/04/19 04:55:34;;;;;;;9.80;8.38;;;6.10;93.10;;;;;;5029512;28;20049;-68
2022/04/19 04:58:01;;;;;;;11.57;8.40;;;6.20;93.40;;;;;;5031222;28;20072;-68
2022/04/19 05:00:28;;;;;;;11.10;8.52;;;6.20;93.70;;;;;;5029346;28;20045;-68
2022/04/19 05:02:55;;;;;;;11.27;8.43;;;6.20;93.60;;;;;;5027822;28;20079;-69
2022/04/19 05:05:21;;;;;;;13.98;9.07;;;6.20;93.40;;;;;;5028601;28;20096;-68
2022/04/19 05:07:47;;;;;;;13.65;9.13;;;6.20;93.70;;;;;;5019749;28;20120;-68
2022/04/19 05:10:13;;;;;;;15.77;8.82;;;6.30;93.50;;;;;;5029112;28;20120;-67
2022/04/19 05:12:39;;;;;;;11.20;8.35;;;6.30;93.60;;;;;;5028741;28;20041;-68
2022/04/19 05:15:05;;;;;;;12.68;8.57;;;6.40;93.50;;;;;;5027889;28;20060;-68
2022/04/19 05:17:31;;;;;;;10.35;7.95;;;6.40;93.70;;;;;;5025627;28;20041;-68
2022/04/19 05:19:57;;;;;;;10.60;8.52;;;6.50;93.60;;;;;;5029816;28;20109;-67
2022/04/19 05:22:23;;;;;;;10.48;8.27;;;6.60;93.90;;;;;;5028481;28;20568;-68
2022/04/19 05:24:48;;;;;;;10.35;8.80;;;6.60;93.90;;;;;;5029966;28;20040;-68
2022/04/19 05:27:14;;;;;;;9.90;7.68;;;6.70;93.80;;;;;;5028417;28;20042;-67
2022/04/19 05:29:40;;;;;;;12.20;9.82;;;6.80;93.80;;;;;;5027477;28;20480;-67
2022/04/19 05:32:06;;;;;;;12.35;8.73;;;7.00;93.50;;;;;;5028804;28;20875;-67
2022/04/19 05:34:31;;;;;;;11.32;8.45;;;7.20;93.50;;;;;;5030516;28;20037;-67
2022/04/19 05:36:57;;;;;;;8.95;7.93;;;7.40;93.20;;;;;;5011877;28;20052;-68
2022/04/19 05:39:23;;;;;;;11.75;8.35;;;7.80;92.90;;;;;;5011192;28;20093;-67
2022/04/19 05:41:49;;;;;;;10.15;8.05;;;8.10;92.30;;;;;;5027845;28;20077;-68
2022/04/19 05:44:15;;;;;;;11.52;7.65;;;8.40;91.90;;;;;;5027450;28;20493;-68
2022/04/19 05:46:40;;;;;;;10.07;7.57;;;8.70;91.60;;;;;;5027212;28;20049;-68
2022/04/19 05:49:06;;;;;;;10.43;8.23;;;9.10;91.10;;;;;;5029586;28;20042;-68
2022/04/19 05:51:34;;;;;;;11.20;7.88;;;9.60;90.70;;;;;;5028330;28;20080;-68
2022/04/19 05:54:00;;;;;;;9.65;7.82;;;9.80;90.00;;;;;;5029693;28;20049;-68
2022/04/19 05:56:25;;;;;;;9.25;8.02;;;9.70;87.00;;;;;;5030923;28;20052;-68
2022/04/19 05:58:51;;;;;;;9.45;7.55;;;9.50;87.70;;;;;;5030467;28;20033;-68
2022/04/19 06:01:18;;;;;;;9.15;7.43;;;9.40;87.60;;;;;;5030571;28;20421;-68
2022/04/19 06:06:28;;;;;;;10.10;8.13;;;9.20;87.40;;;;;;5030553;28;20409;-67
2022/04/19 06:08:54;;;;;;;10.07;7.78;;;9.10;87.10;;;;;;5032645;28;20061;-67
2022/04/19 06:11:21;;;;;;;9.23;7.28;;;9.10;87.60;;;;;;5031687;28;20060;-68
2022/04/19 06:13:47;;;;;;;9.93;7.60;;;9.10;88.50;;;;;;5031856;28;20037;-68
2022/04/19 06:16:12;;;;;;;9.30;7.68;;;9.20;88.00;;;;;;5029590;28;20611;-68
2022/04/19 06:18:38;;;;;;;9.88;7.70;;;9.20;88.00;;;;;;5032173;28;20044;-68
2022/04/19 06:21:05;;;;;;;8.95;7.07;;;9.20;88.70;;;;;;5028985;28;20077;-68
2022/04/19 06:23:35;;;;;;;11.65;7.95;;;9.20;88.90;;;;;;5032152;28;20067;-68
2022/04/19 06:26:01;;;;;;;9.93;7.57;;;9.40;89.70;;;;;;5031848;28;20045;-68
2022/04/19 06:28:27;;;;;;;10.27;7.18;;;9.40;88.40;;;;;;5033175;28;20068;-68
2022/04/19 06:30:53;;;;;;;9.90;7.22;;;9.50;88.50;;;;;;5030749;28;20057;-68
2022/04/19 06:33:19;;;;;;;8.55;7.35;;;9.60;88.40;;;;;;5032505;28;20037;-68
2022/04/19 06:35:44;;;;;;;9.95;7.13;;;9.60;88.80;;;;;;5028356;28;20084;-68
2022/04/19 06:38:10;;;;;;;10.98;7.95;;;9.80;88.20;;;;;;5031004;28;20087;-68
2022/04/19 06:40:36;;;;;;;10.85;7.70;;;10.00;88.00;;;;;;5032518;28;20041;-69
2022/04/19 06:43:02;;;;;;;9.70;7.03;;;10.10;87.50;;;;;;5031008;28;20081;-68
2022/04/19 06:45:28;;;;;;;8.32;7.03;;;10.20;86.80;;;;;;5014268;28;20409;-68
2022/04/19 06:48:02;;;;;;;9.77;7.03;;;10.40;86.70;;;;;;5030235;28;20058;-69
2022/04/19 06:50:28;;;;;;;8.33;6.97;;;10.60;85.50;;;;;;5032562;28;20112;-68
2022/04/19 06:52:54;;;;;;;9.00;6.82;;;10.60;84.70;;;;;;5032284;28;20576;-68
2022/04/19 06:55:20;;;;;;;11.15;7.03;;;10.80;85.00;;;;;;5031402;28;20152;-68
2022/04/19 06:57:47;;;;;;;9.60;6.65;;;11.00;84.30;;;;;;5032566;28;20331;-68
2022/04/19 07:00:14;;;;;;;7.25;6.25;;;11.20;84.20;;;;;;5029642;28;20481;-68
2022/04/19 07:02:39;;;;;;;7.78;6.68;;;11.50;84.40;;;;;;5029540;28;20044;-68
2022/04/19 07:05:05;;;;;;;9.90;6.20;;;11.90;82.10;;;;;;5030546;28;20045;-69
2022/04/19 07:07:32;;;;;;;12.98;5.65;;;12.10;80.60;;;;;;5032218;28;20042;-68
2022/04/19 07:09:58;;;;;;;10.18;6.53;;;12.30;78.80;;;;;;5030745;28;20508;-68
2022/04/19 07:12:24;;;;;;;10.85;6.57;;;12.60;79.90;;;;;;5030459;28;20061;-68
2022/04/19 07:14:50;;;;;;;9.77;6.55;;;12.90;75.50;;;;;;5030239;28;20029;-68
2022/04/19 07:17:16;;;;;;;10.57;6.45;;;13.30;76.70;;;;;;5028612;28;20053;-69
2022/04/19 07:28:08;;;;;;;9.07;6.40;;;14.80;71.50;;;;;;5031017;28;20111;-68
2022/04/19 07:30:34;;;;;;;8.77;6.32;;;14.90;68.90;;;;;;5029469;28;20053;-67
2022/04/19 07:33:00;;;;;;;7.55;5.45;;;15.00;69.60;;;;;;5029167;28;20083;-68
2022/04/19 07:35:26;;;;;;;9.00;6.65;;;15.20;68.90;;;;;;5028447;28;20149;-68
2022/04/19 07:37:52;;;;;;;7.57;5.82;;;15.70;68.30;;;;;;5028689;28;20505;-69
2022/04/19 07:40:18;;;;;;;8.27;6.07;;;16.10;66.60;;;;;;5031013;28;20034;-68
2022/04/19 07:42:43;;;;;;;8.10;5.40;;;16.30;65.80;;;;;;5030345;28;20657;-68
2022/04/19 07:45:10;;;;;;;10.77;5.32;;;16.40;64.90;;;;;;5029870;28;20079;-68
2022/04/19 07:47:36;;;;;;;7.18;5.68;;;16.20;63.70;;;;;;5030459;28;20042;-69
2022/04/19 07:50:04;;;;;;;7.68;5.38;;;16.40;63.90;;;;;;5031343;28;20091;-69
2022/04/19 07:52:29;;;;;;;5.93;5.00;;;16.70;65.10;;;;;;5028849;28;20049;-68
2022/04/19 07:54:55;;;;;;;6.60;4.60;;;16.70;62.60;;;;;;5031059;28;20672;-69
2022/04/19 07:57:21;;;;;;;8.05;4.78;;;16.70;61.50;;;;;;5030111;28;20091;-69
2022/04/19 07:59:53;;;;;;;4.70;3.97;;;16.90;60.90;;;;;;5031155;28;20041;-69
2022/04/19 08:02:19;;;;;;;6.93;4.03;;;17.60;57.90;;;;;;5029418;28;20461;-69
2022/04/19 08:04:45;;;;;;;5.57;4.05;;;18.10;59.70;;;;;;5031449;28;20084;-69
2022/04/19 08:07:11;;;;;;;5.45;4.05;;;18.70;58.30;;;;;;5027508;28;20090;-67
2022/04/19 08:09:38;;;;;;;6.07;4.20;;;18.70;57.20;;;;;;5030153;28;20045;-69
2022/04/19 08:12:05;;;;;;;4.78;4.13;;;19.10;56.50;;;;;;5027300;28;20744;-69
2022/04/19 08:14:31;;;;;;;9.45;4.10;;;19.30;55.00;;;;;;5029999;28;20040;-69
2022/04/19 08:16:57;;;;;;;5.85;4.03;;;19.60;56.20;;;;;;5027270;28;20037;-69
2022/04/19 08:19:23;;;;;;;5.38;4.43;;;20.00;55.70;;;;;;5029163;28;20477;-69
2022/04/19 08:21:50;;;;;;;5.88;4.55;;;20.00;53.20;;;;;;5030326;28;20126;-69
2022/04/19 08:24:16;;;;;;;7.03;4.57;;;20.20;52.80;;;;;;5029704;28;20499;-69
2022/04/19 08:26:41;;;;;;;7.20;4.07;;;20.10;52.60;;;;;;5030398;28;20079;-69
2022/04/19 08:29:07;;;;;;;5.30;4.05;;;20.10;52.30;;;;;;5029336;28;20504;-68
2022/04/19 08:31:34;;;;;;;5.03;4.32;;;20.00;51.60;;;;;;5026744;28;20053;-69
2022/04/19 08:33:59;;;;;;;6.93;4.63;;;19.70;51.80;;;;;;5030305;28;20056;-68
2022/04/19 08:36:25;;;;;;;5.35;4.15;;;19.80;52.40;;;;;;5029686;28;20049;-69
2022/04/19 08:38:51;;;;;;;6.93;4.03;;;20.10;52.50;;;;;;5030764;28;20484;-67
2022/04/19 08:41:20;;;;;;;4.95;4.45;;;20.00;50.90;;;;;;5030229;28;20044;-69
2022/04/19 08:43:46;;;;;;;6.18;4.45;;;20.10;51.30;;;;;;5029026;28;20048;-68
2022/04/19 08:46:13;;;;;;;7.38;4.78;;;19.90;50.50;;;;;;5028384;28;20041;-68
2022/04/19 08:48:40;;;;;;;5.22;4.35;;;20.30;51.00;;;;;;5030432;28;20037;-68
2022/04/19 08:51:10;;;;;;;6.05;4.18;;;20.40;51.40;;;;;;5029904;28;20041;-69
2022/04/19 08:59:07;;;;;;;4.93;4.32;;;19.70;51.30;;;;;;5029685;28;20156;-69
2022/04/19 09:01:37;;;;;;;5.60;4.88;;;19.80;52.60;;;;;;5026712;28;20042;-69
2022/04/19 09:04:06;;;;;;;7.00;4.43;;;20.00;51.90;;;;;;5029750;28;20124;-69
2022/04/19 09:07:04;;;;;;;4.85;4.00;;;19.90;51.10;;;;;;5028670;28;20080;-69
2022/04/19 09:09:34;;;;;;;4.88;4.10;;;20.20;50.30;;;;;;5018050;28;20140;-69
2022/04/19 09:12:08;;;;;;;5.38;3.83;;;20.40;50.40;;;;;;5029811;28;20041;-69
2022/04/19 09:14:34;;;;;;;5.22;4.07;;;20.40;50.40;;;;;;5018909;28;20069;-69
2022/04/19 09:17:08;;;;;;;4.38;3.40;;;20.30;49.50;;;;;;5029822;28;20120;-69
2022/04/19 09:19:34;;;;;;;5.72;3.33;;;19.90;48.10;;;;;;5029751;28;20049;-69
2022/04/19 09:22:00;;;;;;;5.80;3.65;;;20.00;49.60;;;;;;5030702;28;20036;-68
2022/04/19 09:24:27;;;;;;;4.45;2.45;;;19.50;49.30;;;;;;5031153;28;20462;-69
2022/04/19 09:26:53;;;;;;;3.42;2.40;;;19.70;47.20;;;;;;5028984;28;20073;-69
2022/04/19 09:29:27;;;;;;;3.22;2.15;;;19.70;48.20;;;;;;5032767;28;20112;-69
2022/04/19 09:31:57;;;;;;;5.00;1.95;;;19.70;47.30;;;;;;5033895;28;20041;-68
2022/04/19 09:34:25;;;;;;;2.72;1.42;;;19.70;45.10;;;;;;5034991;28;20045;-68
2022/04/19 09:37:06;;;;;;;1.80;1.08;;;19.40;45.20;;;;;;5032539;28;20119;-69
2022/04/19 09:39:34;;;;;;;9.82;1.48;;;19.70;44.10;;;;;;5033780;28;20509;-68
2022/04/19 09:42:18;;;;;;;2.78;1.27;;;19.80;44.20;;;;;;5033370;28;20037;-69
2022/04/19 09:44:51;;;;;;;2.50;1.63;;;19.80;43.70;;;;;;5034650;28;20060;-68
2022/04/19 09:47:17;;;;;;;2.65;1.58;;;19.50;43.50;;;;;;5033162;28;20052;-69
2022/04/19 09:49:53;;;;;;;2.95;1.48;;;19.60;44.20;;;;;;5034875;28;20129;-69
2022/04/19 09:52:22;;;;;;;2.90;1.73;;;19.80;42.80;;;;;;5033061;28;20088;-68
2022/04/19 09:55:01;;;;;;;2.90;1.60;;;19.90;42.10;;;;;;5034655;28;20038;-68
2022/04/19 09:57:30;;;;;;;2.70;1.13;;;20.00;41.40;;;;;;5032385;28;20052;-68
2022/04/19 09:59:58;;;;;;;2.03;1.20;;;19.90;40.10;;;;;;5032311;28;20435;-68
2022/04/19 10:08:13;;;;;;;3.75;0.90;;;19.90;38.90;;;;;;5033846;28;20052;-68
2022/04/19 10:10:40;;;;;;;2.40;0.98;;;19.80;38.30;;;;;;5033452;28;20037;-69
2022/04/19 10:13:06;;;;;;;2.65;1.00;;;19.80;38.20;;;;;;5032814;28;20430;-69
2022/04/19 10:15:36;;;;;;;3.35;1.00;;;19.70;39.10;;;;;;5032584;28;20103;-68
2022/04/19 10:18:07;;;;;;;2.83;1.10;;;19.60;40.00;;;;;;5030795;28;20405;-68
2022/04/19 10:20:37;;;;;;;4.13;1.40;;;19.50;39.90;;;;;;5034150;28;20045;-69
2022/04/19 10:23:08;;;;;;;4.60;1.55;;;19.70;39.90;;;;;;5032371;28;20110;-68
2022/04/19 10:25:40;;;;;;;2.05;1.10;;;19.70;38.90;;;;;;5034031;28;20064;-68
2022/04/19 10:28:08;;;;;;;3.42;1.10;;;19.50;39.20;;;;;;5031891;28;20056;-68
2022/04/19 10:30:36;;;;;;;1.42;0.90;;;19.40;40.10;;;;;;5031892;28;20089;-69
2022/04/19 10:33:21;;;;;;;2.42;1.23;;;19.70;39.80;;;;;;5031785;28;20069;-68
2022/04/19 10:36:10;;;;;;;2.95;1.05;;;19.70;38.70;;;;;;5033190;28;20200;-68
2022/04/19 10:38:35;;;;;;;6.45;1.38;;;19.60;39.30;;;;;;5032293;28;20136;-68
2022/04/19 10:41:02;;;;;;;3.78;1.10;;;19.70;40.00;;;;;;5031319;28;20037;-68
2022/04/19 10:43:28;;;;;;;3.40;0.73;;;19.90;40.40;;;;;;5033624;28;20041;-69
2022/04/19 10:45:54;;;;;;;1.48;0.80;;;20.20;40.20;;;;;;5031178;28;20064;-68
2022/04/19 10:48:20;;;;;;;2.55;1.10;;;20.20;39.20;;;;;;5032229;28;20434;-69
2022/04/19 10:50:51;;;;;;;2.30;1.08;;;20.20;38.90;;;;;;5033301;28;20091;-68
2022/04/19 10:53:16;;;;;;;1.60;0.93;;;20.10;38.50;;;;;;5033561;28;20045;-69
2022/04/19 10:55:58;;;;;;;2.17;0.90;;;20.20;39.30;;;;;;5031898;28;20405;-69
2022/04/19 10:58:42;;;;;;;1.60;1.02;;;20.00;37.70;;;;;;5032586;28;20063;-71
2022/04/19 11:01:30;;;;;;;3.05;1.05;;;19.50;39.30;;;;;;5030979;28;20430;-73
2022/04/19 11:03:56;;;;;;;2.15;0.98;;;19.50;39.60;;;;;;5031936;28;20082;-70
2022/04/19 11:06:48;;;;;;;1.40;1.00;;;19.40;39.80;;;;;;5032728;28;20053;-69
2022/04/19 11:09:16;;;;;;;3.03;1.33;;;19.70;40.70;;;;;;5029698;28;20186;-69
2022/04/19 11:11:47;;;;;;;3.10;1.33;;;19.90;40.60;;;;;;5031716;28;20430;-70
2022/04/19 11:14:23;;;;;;;1.63;1.10;;;20.00;40.60;;;;;;5031272;28;20481;-69
2022/04/19 11:16:51;;;;;;;2.42;1.40;;;20.10;40.10;;;;;;5028953;28;20080;-69
2022/04/19 11:19:23;;;;;;;2.95;0.85;;;20.20;40.40;;;;;;5031670;28;20493;-69
2022/04/19 11:21:51;;;;;;;1.25;0.80;;;20.00;39.60;;;;;;5031225;28;20048;-69
2022/04/19 11:24:54;;;;;;;2.45;0.98;;;20.20;41.60;;;;;;5028557;28;20486;-70
2022/04/19 11:27:20;;;;;;;2.53;0.65;;;20.40;40.10;;;;;;5032429;28;20041;-69
2022/04/19 11:29:50;;;;;;;3.97;1.00;;;20.70;39.00;;;;;;5030825;28;20108;-69
2022/04/19 11:32:25;;;;;;;2.45;0.80;;;20.80;39.40;;;;;;5028709;28;20041;-70
2022/04/19 11:35:01;;;;;;;2.40;1.10;;;20.50;40.60;;;;;;5032194;28;20048;-69
2022/04/19 11:37:34;;;;;;;4.82;1.30;;;20.50;41.00;;;;;;5026805;28;20050;-69
2022/04/19 11:48:48;;;;;;;4.75;1.20;;;20.80;39.90;;;;;;4980255;28;20833;-69
2022/04/19 11:51:22;;;;;;;2.33;0.98;;;20.80;39.30;;;;;;5020150;28;20368;-68
2022/04/19 11:53:49;;;;;;;2.35;1.10;;;20.80;40.70;;;;;;5031179;28;20059;-68
2022/04/19 11:56:16;;;;;;;3.17;1.02;;;21.20;40.50;;;;;;5028794;28;20465;-69
2022/04/19 11:58:47;;;;;;;1.98;1.00;;;21.10;39.40;;;;;;5030490;28;20123;-68
2022/04/19 12:01:14;;;;;;;2.10;1.00;;;21.00;39.90;;;;;;5029588;28;20384;-68
2022/04/19 12:03:40;;;;;;;0.90;0.75;;;20.90;41.00;;;;;;5029945;28;20057;-69
2022/04/19 12:06:12;;;;;;;1.83;1.00;;;20.80;40.10;;;;;;5029396;28;20128;-68
2022/04/19 12:08:43;;;;;;;1.70;1.20;;;20.90;40.30;;;;;;5030099;28;20401;-70
2022/04/19 12:11:26;;;;;;;1.70;0.85;;;20.50;40.20;;;;;;5026698;28;20040;-69
2022/04/19 12:13:52;;;;;;;2.20;0.77;;;20.50;40.90;;;;;;5031419;28;20413;-69
2022/04/19 12:16:30;;;;;;;3.33;0.88;;;21.00;41.50;;;;;;5028319;28;20358;-70
2022/04/19 12:19:10;;;;;;;1.38;0.70;;;21.00;39.30;;;;;;5031005;28;20075;-69
2022/04/19 12:21:39;;;;;;;2.25;0.90;;;21.20;39.10;;;;;;5029337;28;20037;-68
2022/04/19 12:24:20;;;;;;;2.20;1.00;;;21.00;39.80;;;;;;5029726;28;20453;-68
2022/04/19 12:26:50;;;;;;;2.25;1.10;;;20.80;40.10;;;;;;5029529;28;20446;-70
2022/04/19 12:29:16;;;;;;;4.55;0.95;;;20.90;40.50;;;;;;5028513;28;20091;-68
2022/04/19 12:31:50;;;;;;;5.25;1.23;;;20.80;40.00;;;;;;5028364;28;20045;-69
2022/04/19 12:34:16;;;;;;;2.83;1.00;;;21.10;39.80;;;;;;5031129;28;20049;-70
2022/04/19 12:36:48;;;;;;;2.50;1.48;;;21.00;39.90;;;;;;5012745;28;20149;-69
2022/04/19 12:39:15;;;;;;;3.42;1.50;;;20.90;41.10;;;;;;5026182;28;20056;-69
2022/04/19 12:41:43;;;;;;;3.05;1.38;;;20.60;39.60;;;;;;5029697;28;20112;-70
2022/04/19 12:44:12;;;;;;;3.22;1.60;;;20.70;40.60;;;;;;5030075;28;20041;-67
2022/04/19 12:46:48;;;;;;;4.47;1.60;;;20.80;40.60;;;;;;5029235;28;20393;-69
2022/04/19 12:49:29;;;;;;;2.50;1.95;;;20.80;40.00;;;;;;5029204;28;20049;-67
2022/04/19 12:52:08;;;;;;;2.03;1.58;;;20.50;41.30;;;;;;5029350;28;20037;-68
2022/04/19 12:54:39;;;;;;;4.32;1.90;;;20.40;40.80;;;;;;5028755;28;20113;-66
2022/04/19 12:57:12;;;;;;;5.22;1.90;;;20.20;41.20;;;;;;5029629;28;20117;-70
2022/04/19 12:59:39;;;;;;;4.17;1.60;;;20.40;41.50;;;;;;5027438;28;20071;-70
2022/04/19 13:02:05;;;;;;;12.52;2.08;;;20.50;41.30;;;;;;5027720;28;20049;-66
2022/04/19 13:04:30;;;;;;;2.70;1.70;;;20.60;40.30;;;;;;5030596;28;20040;-66
2022/04/19 13:12:26;;;;;;;4.28;1.95;;;20.50;41.30;;;;;;5027270;28;20499;-67
2022/04/19 13:14:59;;;;;;;4.05;1.77;;;20.60;41.10;;;;;;5030396;28;20037;-67
2022/04/19 13:17:27;;;;;;;3.05;1.40;;;20.60;41.10;;;;;;5027793;28;20116;-66
2022/04/19 13:19:53;;;;;;;2.67;1.48;;;20.50;41.40;;;;;;5028693;28;20068;-67
2022/04/19 13:22:19;;;;;;;5.63;1.83;;;20.40;41.90;;;;;;5029820;28;20057;-67
2022/04/19 13:24:45;;;;;;;4.78;1.38;;;20.50;41.70;;;;;;5028285;28;20389;-67
2022/04/19 13:27:12;;;;;;;2.00;1.13;;;20.40;40.80;;;;;;5028692;28;20129;-71
2022/04/19 13:29:42;;;;;;;3.45;1.20;;;20.20;41.90;;;;;;5026393;28;20413;-68
2022/04/19 13:32:08;;;;;;;2.65;1.00;;;19.80;41.60;;;;;;5025842;28;20053;-67
2022/04/19 13:34:34;;;;;;;3.60;1.20;;;19.30;41.30;;;;;;5030125;28;20475;-68
2022/04/19 13:37:01;;;;;;;3.00;0.95;;;19.10;41.50;;;;;;5027764;28;20121;-68
2022/04/19 13:39:27;;;;;;;2.85;1.30;;;19.10;42.60;;;;;;5028844;28;20049;-69